sensor_id;sensor_type;location;lat;lon;timestamp;temperature;humidity
3360;DHT22;1693;49.602;11.046;2023-02-04T00:00:20;6.60;99.90
3360;DHT22;1693;49.602;11.046;2023-02-04T00:02:47;6.60;99.90
3360;DHT22;1693;49.602;11.046;2023-02-04T00:05:16;6.60;99.90
3360;DHT22;1693;49.602;11.046;2023-02-04T00:07:44;6.60;99.90
3360;DHT22;1693;49.602;11.046;2023-02-04T00:10:11;6.60;99.90
3360;DHT22;1693;49.602;11.046;2023-02-04T00:12:38;6.60;99.90
3360;DHT22;1693;49.602;11.046;2023-02-04T00:15:07;6.60;99.90
3360;DHT22;1693;49.602;11.046;2023-02-04T00:17:37;6.60;99.90
3360;DHT22;1693;49.602;11.046;2023-02-04T00:20:04;6.60;99.90
3360;DHT22;1693;49.602;11.046;2023-02-04T00:44:41;6.70;99.90
3360;DHT22;1693;49.602;11.046;2023-02-04T00:47:08;6.40;99.90
3360;DHT22;1693;49.602;11.046;2023-02-04T00:49:35;6.40;99.90
3360;DHT22;1693;49.602;11.046;2023-02-04T00:52:06;6.40;99.90
3360;DHT22;1693;49.602;11.046;2023-02-04T00:57:00;6.30;99.90
3360;DHT22;1693;49.602;11.046;2023-02-04T00:59:27;6.30;99.90
3360;DHT22;1693;49.602;11.046;2023-02-04T01:01:54;6.20;99.90
3360;DHT22;1693;49.602;11.046;2023-02-04T01:04:21;6.30;99.90
3360;DHT22;1693;49.602;11.046;2023-02-04T01:06:49;6.30;99.90
3360;DHT22;1693;49.602;11.046;2023-02-04T01:09:17;6.40;99.90
3360;DHT22;1693;49.602;11.046;2023-02-04T01:11:44;6.30;99.90
3360;DHT22;1693;49.602;11.046;2023-02-04T01:14:11;6.20;99.90
3360;DHT22;1693;49.602;11.046;2023-02-04T01:16:38;6.30;99.90
3360;DHT22;1693;49.602;11.046;2023-02-04T01:19:06;6.20;99.90
3360;DHT22;1693;49.602;11.046;2023-02-04T01:21:33;6.30;99.90
3360;DHT22;1693;49.602;11.046;2023-02-04T01:24:01;6.20;99.90
3360;DHT22;1693;49.602;11.046;2023-02-04T01:26:30;6.20;99.90
3360;DHT22;1693;49.602;11.046;2023-02-04T01:28:58;6.20;99.90
3360;DHT22;1693;49.602;11.046;2023-02-04T01:31:25;6.20;99.90
3360;DHT22;1693;49.602;11.046;2023-02-04T01:33:52;6.20;99.90
3360;DHT22;1693;49.602;11.046;2023-02-04T01:36:20;6.30;99.90
3360;DHT22;1693;49.602;11.046;2023-02-04T01:38:47;6.30;99.90
3360;DHT22;1693;49.602;11.046;2023-02-04T01:41:14;6.30;99.90
3360;DHT22;1693;49.602;11.046;2023-02-04T01:43:43;6.30;99.90
3360;DHT22;1693;49.602;11.046;2023-02-04T01:46:11;6.30;99.90
3360;DHT22;1693;49.602;11.046;2023-02-04T01:48:38;6.30;99.90
3360;DHT22;1693;49.602;11.046;2023-02-04T01:51:07;6.30;99.90
3360;DHT22;1693;49.602;11.046;2023-02-04T01:53:36;6.30;99.90
3360;DHT22;1693;49.602;11.046;2023-02-04T01:56:13;6.20;99.90
3360;DHT22;1693;49.602;11.046;2023-02-04T01:58:41;6.20;99.90
3360;DHT22;1693;49.602;11.046;2023-02-04T02:01:13;6.20;99.90
3360;DHT22;1693;49.602;11.046;2023-02-04T02:03:40;6.20;99.90
3360;DHT22;1693;49.602;11.046;2023-02-04T02:06:12;6.30;99.90
3360;DHT22;1693;49.602;11.046;2023-02-04T02:08:40;6.20;99.90
3360;DHT22;1693;49.602;11.046;2023-02-04T02:11:09;6.20;99.90
3360;DHT22;1693;49.602;11.046;2023-02-04T02:13:37;6.20;99.90
3360;DHT22;1693;49.602;11.046;2023-02-04T02:16:07;6.20;99.90
3360;DHT22;1693;49.602;11.046;2023-02-04T02:18:37;6.10;99.90
3360;DHT22;1693;49.602;11.046;2023-02-04T02:21:08;6.10;99.90
3360;DHT22;1693;49.602;11.046;2023-02-04T02:23:46;6.10;99.90
3360;DHT22;1693;49.602;11.046;2023-02-04T02:26:14;6.10;99.90
3360;DHT22;1693;49.602;11.046;2023-02-04T02:28:42;6.10;99.90
3360;DHT22;1693;49.602;11.046;2023-02-04T02:31:12;6.10;99.90
3360;DHT22;1693;49.602;11.046;2023-02-04T02:33:40;6.10;99.90
3360;DHT22;1693;49.602;11.046;2023-02-04T02:36:07;6.00;99.90
3360;DHT22;1693;49.602;11.046;2023-02-04T02:38:35;6.10;99.90
3360;DHT22;1693;49.602;11.046;2023-02-04T02:41:04;6.10;99.90
3360;DHT22;1693;49.602;11.046;2023-02-04T02:43:34;6.10;99.90
3360;DHT22;1693;49.602;11.046;2023-02-04T02:46:04;6.10;99.90
3360;DHT22;1693;49.602;11.046;2023-02-04T02:48:32;6.10;99.90
3360;DHT22;1693;49.602;11.046;2023-02-04T02:51:05;6.20;99.90
3360;DHT22;1693;49.602;11.046;2023-02-04T02:53:33;6.20;99.90
3360;DHT22;1693;49.602;11.046;2023-02-04T02:56:00;6.20;99.90
3360;DHT22;1693;49.602;11.046;2023-02-04T02:58:33;6.10;99.90
3360;DHT22;1693;49.602;11.046;2023-02-04T03:01:05;6.10;99.90
3360;DHT22;1693;49.602;11.046;2023-02-04T03:03:35;6.10;99.90
3360;DHT22;1693;49.602;11.046;2023-02-04T03:06:16;6.10;99.90
3360;DHT22;1693;49.602;11.046;2023-02-04T03:08:47;6.00;99.90
3360;DHT22;1693;49.602;11.046;2023-02-04T03:11:20;6.00;99.90
3360;DHT22;1693;49.602;11.046;2023-02-04T03:13:49;5.90;99.90
3360;DHT22;1693;49.602;11.046;2023-02-04T03:16:16;5.80;99.90
3360;DHT22;1693;49.602;11.046;2023-02-04T03:18:44;5.80;99.90
3360;DHT22;1693;49.602;11.046;2023-02-04T03:21:12;5.80;99.90
3360;DHT22;1693;49.602;11.046;2023-02-04T03:23:39;5.70;99.90
3360;DHT22;1693;49.602;11.046;2023-02-04T03:26:06;5.70;99.90
3360;DHT22;1693;49.602;11.046;2023-02-04T03:28:38;5.60;99.90
3360;DHT22;1693;49.602;11.046;2023-02-04T03:31:07;5.60;99.90
3360;DHT22;1693;49.602;11.046;2023-02-04T03:33:34;5.70;99.90
3360;DHT22;1693;49.602;11.046;2023-02-04T03:36:02;5.70;99.90
3360;DHT22;1693;49.602;11.046;2023-02-04T03:38:29;5.70;99.90
3360;DHT22;1693;49.602;11.046;2023-02-04T03:40:59;5.70;99.90
3360;DHT22;1693;49.602;11.046;2023-02-04T03:43:28;5.70;99.90
3360;DHT22;1693;49.602;11.046;2023-02-04T03:46:04;5.60;99.90
3360;DHT22;1693;49.602;11.046;2023-02-04T03:48:33;5.60;99.90
3360;DHT22;1693;49.602;11.046;2023-02-04T03:51:00;5.60;99.90
3360;DHT22;1693;49.602;11.046;2023-02-04T03:53:27;5.50;99.90
3360;DHT22;1693;49.602;11.046;2023-02-04T03:55:55;5.50;99.90
3360;DHT22;1693;49.602;11.046;2023-02-04T03:58:23;5.60;99.90
3360;DHT22;1693;49.602;11.046;2023-02-04T04:00:53;5.50;99.90
3360;DHT22;1693;49.602;11.046;2023-02-04T04:03:21;5.40;99.90
3360;DHT22;1693;49.602;11.046;2023-02-04T04:05:52;5.20;99.90
3360;DHT22;1693;49.602;11.046;2023-02-04T04:08:19;4.90;99.90
3360;DHT22;1693;49.602;11.046;2023-02-04T04:10:46;4.80;99.90
3360;DHT22;1693;49.602;11.046;2023-02-04T04:13:16;4.60;99.90
3360;DHT22;1693;49.602;11.046;2023-02-04T04:15:46;4.50;99.90
3360;DHT22;1693;49.602;11.046;2023-02-04T04:18:13;4.60;99.90
3360;DHT22;1693;49.602;11.046;2023-02-04T04:20:44;4.60;99.90
3360;DHT22;1693;49.602;11.046;2023-02-04T04:23:12;4.60;99.90
3360;DHT22;1693;49.602;11.046;2023-02-04T04:25:41;4.70;99.90
3360;DHT22;1693;49.602;11.046;2023-02-04T04:28:11;4.80;99.90
3360;DHT22;1693;49.602;11.046;2023-02-04T04:30:41;4.90;99.90
3360;DHT22;1693;49.602;11.046;2023-02-04T04:33:09;5.10;99.90
3360;DHT22;1693;49.602;11.046;2023-02-04T04:35:36;5.20;99.90
3360;DHT22;1693;49.602;11.046;2023-02-04T04:38:07;5.20;99.90
3360;DHT22;1693;49.602;11.046;2023-02-04T04:40:36;5.30;99.90
3360;DHT22;1693;49.602;11.046;2023-02-04T04:43:03;5.30;99.90
3360;DHT22;1693;49.602;11.046;2023-02-04T04:45:32;5.30;99.90
3360;DHT22;1693;49.602;11.046;2023-02-04T04:48:02;5.40;99.90
3360;DHT22;1693;49.602;11.046;2023-02-04T04:50:34;5.30;99.90
3360;DHT22;1693;49.602;11.046;2023-02-04T04:53:06;5.40;99.90
3360;DHT22;1693;49.602;11.046;2023-02-04T04:55:37;5.40;99.90
3360;DHT22;1693;49.602;11.046;2023-02-04T04:58:07;5.30;99.90
3360;DHT22;1693;49.602;11.046;2023-02-04T05:00:34;5.40;99.90
3360;DHT22;1693;49.602;11.046;2023-02-04T05:03:03;5.30;99.90
3360;DHT22;1693;49.602;11.046;2023-02-04T05:05:30;5.40;99.90
3360;DHT22;1693;49.602;11.046;2023-02-04T05:07:57;5.40;99.90
3360;DHT22;1693;49.602;11.046;2023-02-04T05:10:25;5.40;99.90
3360;DHT22;1693;49.602;11.046;2023-02-04T05:12:53;5.30;99.90
3360;DHT22;1693;49.602;11.046;2023-02-04T05:15:27;5.30;99.90
3360;DHT22;1693;49.602;11.046;2023-02-04T05:17:54;5.30;99.90
3360;DHT22;1693;49.602;11.046;2023-02-04T05:20:25;5.30;99.90
3360;DHT22;1693;49.602;11.046;2023-02-04T05:22:53;5.20;99.90
3360;DHT22;1693;49.602;11.046;2023-02-04T05:25:20;5.20;99.90
3360;DHT22;1693;49.602;11.046;2023-02-04T05:27:48;5.20;99.90
3360;DHT22;1693;49.602;11.046;2023-02-04T05:30:18;5.20;99.90
3360;DHT22;1693;49.602;11.046;2023-02-04T05:32:52;5.20;99.90
3360;DHT22;1693;49.602;11.046;2023-02-04T05:35:19;5.10;99.90
3360;DHT22;1693;49.602;11.046;2023-02-04T05:37:50;5.00;99.90
3360;DHT22;1693;49.602;11.046;2023-02-04T05:40:25;4.90;99.90
3360;DHT22;1693;49.602;11.046;2023-02-04T05:42:52;4.80;99.90
3360;DHT22;1693;49.602;11.046;2023-02-04T05:45:20;4.70;99.90
3360;DHT22;1693;49.602;11.046;2023-02-04T05:47:48;4.60;99.90
3360;DHT22;1693;49.602;11.046;2023-02-04T05:50:18;4.50;99.90
3360;DHT22;1693;49.602;11.046;2023-02-04T05:52:49;4.50;99.90
3360;DHT22;1693;49.602;11.046;2023-02-04T05:55:18;4.50;99.90
3360;DHT22;1693;49.602;11.046;2023-02-04T05:57:45;4.50;99.90
3360;DHT22;1693;49.602;11.046;2023-02-04T06:00:15;4.40;99.90
3360;DHT22;1693;49.602;11.046;2023-02-04T06:02:47;4.40;99.90
3360;DHT22;1693;49.602;11.046;2023-02-04T06:05:14;4.40;99.90
3360;DHT22;1693;49.602;11.046;2023-02-04T06:07:44;4.40;99.90
3360;DHT22;1693;49.602;11.046;2023-02-04T06:10:11;4.40;99.90
3360;DHT22;1693;49.602;11.046;2023-02-04T06:12:38;4.30;99.90
3360;DHT22;1693;49.602;11.046;2023-02-04T06:15:09;4.20;99.90
3360;DHT22;1693;49.602;11.046;2023-02-04T06:17:39;4.10;99.90
3360;DHT22;1693;49.602;11.046;2023-02-04T06:20:16;3.90;99.90
3360;DHT22;1693;49.602;11.046;2023-02-04T06:22:44;3.60;99.90
3360;DHT22;1693;49.602;11.046;2023-02-04T06:25:12;3.50;99.90
3360;DHT22;1693;49.602;11.046;2023-02-04T06:27:42;3.30;99.90
3360;DHT22;1693;49.602;11.046;2023-02-04T06:32:45;3.00;99.90
3360;DHT22;1693;49.602;11.046;2023-02-04T06:35:21;2.90;99.90
3360;DHT22;1693;49.602;11.046;2023-02-04T06:37:48;2.80;99.90
3360;DHT22;1693;49.602;11.046;2023-02-04T06:40:16;2.90;99.90
3360;DHT22;1693;49.602;11.046;2023-02-04T06:42:45;2.80;99.90
3360;DHT22;1693;49.602;11.046;2023-02-04T06:45:18;2.80;99.90
3360;DHT22;1693;49.602;11.046;2023-02-04T06:47:45;2.80;99.90
3360;DHT22;1693;49.602;11.046;2023-02-04T06:50:13;2.70;99.90
3360;DHT22;1693;49.602;11.046;2023-02-04T06:52:45;2.70;99.90
3360;DHT22;1693;49.602;11.046;2023-02-04T06:55:12;2.70;99.90
3360;DHT22;1693;49.602;11.046;2023-02-04T06:57:41;2.70;99.90
3360;DHT22;1693;49.602;11.046;2023-02-04T07:00:12;2.70;99.90
3360;DHT22;1693;49.602;11.046;2023-02-04T07:02:39;2.80;99.90
3360;DHT22;1693;49.602;11.046;2023-02-04T07:05:07;2.80;99.90
3360;DHT22;1693;49.602;11.046;2023-02-04T07:07:38;2.90;99.90
3360;DHT22;1693;49.602;11.046;2023-02-04T07:10:10;3.00;99.90
3360;DHT22;1693;49.602;11.046;2023-02-04T07:12:39;3.00;99.90
3360;DHT22;1693;49.602;11.046;2023-02-04T07:15:07;3.00;99.90
3360;DHT22;1693;49.602;11.046;2023-02-04T07:17:39;3.00;99.90
3360;DHT22;1693;49.602;11.046;2023-02-04T07:20:09;2.80;99.90
3360;DHT22;1693;49.602;11.046;2023-02-04T07:22:36;2.90;99.90
3360;DHT22;1693;49.602;11.046;2023-02-04T07:25:14;2.90;99.90
3360;DHT22;1693;49.602;11.046;2023-02-04T07:27:52;2.90;99.90
3360;DHT22;1693;49.602;11.046;2023-02-04T07:30:21;2.90;99.90
3360;DHT22;1693;49.602;11.046;2023-02-04T07:32:48;2.90;99.90
3360;DHT22;1693;49.602;11.046;2023-02-04T07:35:18;2.80;99.90
3360;DHT22;1693;49.602;11.046;2023-02-04T07:37:54;2.80;99.90
3360;DHT22;1693;49.602;11.046;2023-02-04T07:40:23;2.80;99.90
3360;DHT22;1693;49.602;11.046;2023-02-04T07:42:52;2.70;99.90
3360;DHT22;1693;49.602;11.046;2023-02-04T07:45:19;2.70;99.90
3360;DHT22;1693;49.602;11.046;2023-02-04T07:47:48;2.80;99.90
3360;DHT22;1693;49.602;11.046;2023-02-04T07:50:17;2.80;99.90
3360;DHT22;1693;49.602;11.046;2023-02-04T07:52:49;2.90;99.90
3360;DHT22;1693;49.602;11.046;2023-02-04T07:55:19;3.00;99.90
3360;DHT22;1693;49.602;11.046;2023-02-04T07:57:49;3.10;99.90
3360;DHT22;1693;49.602;11.046;2023-02-04T08:00:25;3.10;99.90
3360;DHT22;1693;49.602;11.046;2023-02-04T08:02:54;3.30;99.90
3360;DHT22;1693;49.602;11.046;2023-02-04T08:05:22;3.40;99.90
3360;DHT22;1693;49.602;11.046;2023-02-04T08:07:49;3.50;99.90
3360;DHT22;1693;49.602;11.046;2023-02-04T08:10:17;3.60;99.90
3360;DHT22;1693;49.602;11.046;2023-02-04T08:12:44;3.60;99.90
3360;DHT22;1693;49.602;11.046;2023-02-04T08:15:18;3.80;99.90
3360;DHT22;1693;49.602;11.046;2023-02-04T08:17:58;3.90;99.90
3360;DHT22;1693;49.602;11.046;2023-02-04T08:20:25;4.00;99.90
3360;DHT22;1693;49.602;11.046;2023-02-04T08:22:54;4.10;99.90
3360;DHT22;1693;49.602;11.046;2023-02-04T08:25:23;4.00;99.90
3360;DHT22;1693;49.602;11.046;2023-02-04T08:27:54;4.20;99.90
3360;DHT22;1693;49.602;11.046;2023-02-04T08:30:25;4.30;99.90
3360;DHT22;1693;49.602;11.046;2023-02-04T08:32:54;4.20;99.90
3360;DHT22;1693;49.602;11.046;2023-02-04T08:35:22;4.40;99.90
3360;DHT22;1693;49.602;11.046;2023-02-04T08:37:49;4.60;99.90
3360;DHT22;1693;49.602;11.046;2023-02-04T08:40:19;4.40;99.90
3360;DHT22;1693;49.602;11.046;2023-02-04T08:42:46;4.40;99.90
3360;DHT22;1693;49.602;11.046;2023-02-04T08:45:14;4.30;99.90
3360;DHT22;1693;49.602;11.046;2023-02-04T08:47:44;4.30;99.90
3360;DHT22;1693;49.602;11.046;2023-02-04T08:50:15;4.30;99.90
3360;DHT22;1693;49.602;11.046;2023-02-04T08:52:42;4.30;99.90
3360;DHT22;1693;49.602;11.046;2023-02-04T08:55:09;4.40;99.90
3360;DHT22;1693;49.602;11.046;2023-02-04T08:57:37;4.50;99.90
3360;DHT22;1693;49.602;11.046;2023-02-04T09:00:05;4.70;99.90
3360;DHT22;1693;49.602;11.046;2023-02-04T09:02:34;4.80;99.90
3360;DHT22;1693;49.602;11.046;2023-02-04T09:05:07;4.70;99.90
3360;DHT22;1693;49.602;11.046;2023-02-04T09:07:42;4.80;99.90
3360;DHT22;1693;49.602;11.046;2023-02-04T09:10:09;4.70;99.90
3360;DHT22;1693;49.602;11.046;2023-02-04T09:12:36;5.00;99.90
3360;DHT22;1693;49.602;11.046;2023-02-04T09:15:08;5.20;99.90
3360;DHT22;1693;49.602;11.046;2023-02-04T09:17:35;5.50;99.90
3360;DHT22;1693;49.602;11.046;2023-02-04T09:20:06;5.70;99.90
3360;DHT22;1693;49.602;11.046;2023-02-04T09:22:33;5.90;99.90
3360;DHT22;1693;49.602;11.046;2023-02-04T09:25:02;5.90;99.90
3360;DHT22;1693;49.602;11.046;2023-02-04T09:27:32;5.70;99.90
3360;DHT22;1693;49.602;11.046;2023-02-04T09:30:02;5.80;99.90
3360;DHT22;1693;49.602;11.046;2023-02-04T09:32:29;5.80;99.90
3360;DHT22;1693;49.602;11.046;2023-02-04T09:34:56;5.70;99.90
3360;DHT22;1693;49.602;11.046;2023-02-04T09:37:31;5.70;99.90
3360;DHT22;1693;49.602;11.046;2023-02-04T09:40:02;5.50;99.90
3360;DHT22;1693;49.602;11.046;2023-02-04T09:42:29;5.60;99.90
3360;DHT22;1693;49.602;11.046;2023-02-04T09:44:59;5.80;99.90
3360;DHT22;1693;49.602;11.046;2023-02-04T09:47:28;6.10;99.90
3360;DHT22;1693;49.602;11.046;2023-02-04T09:50:02;6.20;99.90
3360;DHT22;1693;49.602;11.046;2023-02-04T09:52:32;6.30;99.90
3360;DHT22;1693;49.602;11.046;2023-02-04T09:55:07;6.50;99.90
3360;DHT22;1693;49.602;11.046;2023-02-04T09:57:43;6.70;99.90
3360;DHT22;1693;49.602;11.046;2023-02-04T10:00:16;7.20;99.90
3360;DHT22;1693;49.602;11.046;2023-02-04T10:02:44;6.90;99.90
3360;DHT22;1693;49.602;11.046;2023-02-04T10:05:15;6.80;99.90
3360;DHT22;1693;49.602;11.046;2023-02-04T10:07:45;6.60;99.90
3360;DHT22;1693;49.602;11.046;2023-02-04T10:13:45;5.90;99.90
3360;DHT22;1693;49.602;11.046;2023-02-04T10:16:18;5.70;99.90
3360;DHT22;1693;49.602;11.046;2023-02-04T10:18:56;6.10;99.90
3360;DHT22;1693;49.602;11.046;2023-02-04T10:21:28;6.60;99.90
3360;DHT22;1693;49.602;11.046;2023-02-04T10:24:02;7.30;99.90
3360;DHT22;1693;49.602;11.046;2023-02-04T10:26:32;7.80;99.90
3360;DHT22;1693;49.602;11.046;2023-02-04T10:29:05;7.90;99.90
3360;DHT22;1693;49.602;11.046;2023-02-04T10:31:36;8.00;99.90
3360;DHT22;1693;49.602;11.046;2023-02-04T10:34:11;8.60;99.90
3360;DHT22;1693;49.602;11.046;2023-02-04T10:36:42;8.40;99.90
3360;DHT22;1693;49.602;11.046;2023-02-04T10:39:13;8.00;99.90
3360;DHT22;1693;49.602;11.046;2023-02-04T10:41:49;7.90;99.90
3360;DHT22;1693;49.602;11.046;2023-02-04T10:44:27;7.90;99.90
3360;DHT22;1693;49.602;11.046;2023-02-04T10:47:00;7.90;99.90
3360;DHT22;1693;49.602;11.046;2023-02-04T10:49:29;7.60;99.90
3360;DHT22;1693;49.602;11.046;2023-02-04T10:52:00;7.30;99.90
3360;DHT22;1693;49.602;11.046;2023-02-04T10:54:34;7.40;99.90
3360;DHT22;1693;49.602;11.046;2023-02-04T10:57:19;7.70;99.90
3360;DHT22;1693;49.602;11.046;2023-02-04T10:59:51;7.90;99.90
3360;DHT22;1693;49.602;11.046;2023-02-04T11:02:38;7.90;99.90
3360;DHT22;1693;49.602;11.046;2023-02-04T11:05:11;8.30;99.90
3360;DHT22;1693;49.602;11.046;2023-02-04T11:07:39;7.80;99.90
3360;DHT22;1693;49.602;11.046;2023-02-04T11:10:12;7.50;99.90
3360;DHT22;1693;49.602;11.046;2023-02-04T11:12:41;7.00;99.90
3360;DHT22;1693;49.602;11.046;2023-02-04T11:15:38;7.20;99.90
3360;DHT22;1693;49.602;11.046;2023-02-04T11:18:10;6.90;99.90
3360;DHT22;1693;49.602;11.046;2023-02-04T11:20:38;6.70;99.90
3360;DHT22;1693;49.602;11.046;2023-02-04T11:23:29;6.60;99.90
3360;DHT22;1693;49.602;11.046;2023-02-04T11:26:07;6.60;99.90
3360;DHT22;1693;49.602;11.046;2023-02-04T11:28:45;6.70;99.90
3360;DHT22;1693;49.602;11.046;2023-02-04T11:31:40;6.70;99.90
3360;DHT22;1693;49.602;11.046;2023-02-04T11:34:24;6.50;99.90
3360;DHT22;1693;49.602;11.046;2023-02-04T11:37:15;6.60;99.90
3360;DHT22;1693;49.602;11.046;2023-02-04T11:39:47;6.90;99.90
3360;DHT22;1693;49.602;11.046;2023-02-04T11:42:30;7.10;99.90
3360;DHT22;1693;49.602;11.046;2023-02-04T11:44:59;7.10;99.90
3360;DHT22;1693;49.602;11.046;2023-02-04T11:47:35;7.30;99.90
3360;DHT22;1693;49.602;11.046;2023-02-04T11:50:09;7.50;99.90
3360;DHT22;1693;49.602;11.046;2023-02-04T11:52:36;7.40;99.90
3360;DHT22;1693;49.602;11.046;2023-02-04T11:55:11;7.10;99.90
3360;DHT22;1693;49.602;11.046;2023-02-04T11:57:44;7.40;99.90
3360;DHT22;1693;49.602;11.046;2023-02-04T12:00:20;7.20;99.90
3360;DHT22;1693;49.602;11.046;2023-02-04T12:02:49;6.90;99.90
3360;DHT22;1693;49.602;11.046;2023-02-04T12:05:21;6.90;99.90
3360;DHT22;1693;49.602;11.046;2023-02-04T12:07:48;6.70;99.90
3360;DHT22;1693;49.602;11.046;2023-02-04T12:10:24;6.10;99.90
3360;DHT22;1693;49.602;11.046;2023-02-04T12:12:57;6.00;99.90
3360;DHT22;1693;49.602;11.046;2023-02-04T12:15:31;6.10;99.90
3360;DHT22;1693;49.602;11.046;2023-02-04T12:18:03;5.70;99.90
3360;DHT22;1693;49.602;11.046;2023-02-04T12:20:33;5.90;99.90
3360;DHT22;1693;49.602;11.046;2023-02-04T12:23:02;5.80;99.90
3360;DHT22;1693;49.602;11.046;2023-02-04T12:25:39;5.90;99.90
3360;DHT22;1693;49.602;11.046;2023-02-04T12:28:08;6.10;99.90
3360;DHT22;1693;49.602;11.046;2023-02-04T12:30:41;5.90;99.90
3360;DHT22;1693;49.602;11.046;2023-02-04T12:33:10;6.10;99.90
3360;DHT22;1693;49.602;11.046;2023-02-04T12:35:38;6.10;99.90
3360;DHT22;1693;49.602;11.046;2023-02-04T12:38:10;6.20;99.90
3360;DHT22;1693;49.602;11.046;2023-02-04T12:40:40;6.30;99.90
3360;DHT22;1693;49.602;11.046;2023-02-04T12:43:12;6.50;99.90
3360;DHT22;1693;49.602;11.046;2023-02-04T12:45:53;6.30;99.90
3360;DHT22;1693;49.602;11.046;2023-02-04T12:48:24;6.40;99.90
3360;DHT22;1693;49.602;11.046;2023-02-04T12:50:58;6.50;99.90
3360;DHT22;1693;49.602;11.046;2023-02-04T12:53:37;6.60;99.90
3360;DHT22;1693;49.602;11.046;2023-02-04T12:56:06;6.70;99.90
3360;DHT22;1693;49.602;11.046;2023-02-04T12:58:42;6.70;99.90
3360;DHT22;1693;49.602;11.046;2023-02-04T13:01:18;6.70;99.90
3360;DHT22;1693;49.602;11.046;2023-02-04T13:03:46;6.80;99.90
3360;DHT22;1693;49.602;11.046;2023-02-04T13:06:13;6.80;99.90
3360;DHT22;1693;49.602;11.046;2023-02-04T13:08:45;6.90;99.90
3360;DHT22;1693;49.602;11.046;2023-02-04T13:11:17;7.00;99.90
3360;DHT22;1693;49.602;11.046;2023-02-04T13:13:47;6.90;99.90
3360;DHT22;1693;49.602;11.046;2023-02-04T13:16:16;7.00;99.90
3360;DHT22;1693;49.602;11.046;2023-02-04T13:18:45;6.70;99.90
3360;DHT22;1693;49.602;11.046;2023-02-04T13:21:12;6.70;99.90
3360;DHT22;1693;49.602;11.046;2023-02-04T13:23:40;6.80;99.90
3360;DHT22;1693;49.602;11.046;2023-02-04T13:26:07;6.80;99.90
3360;DHT22;1693;49.602;11.046;2023-02-04T13:28:35;6.60;99.90
3360;DHT22;1693;49.602;11.046;2023-02-04T13:31:06;6.60;99.90
3360;DHT22;1693;49.602;11.046;2023-02-04T13:33:33;6.60;99.90
3360;DHT22;1693;49.602;11.046;2023-02-04T13:36:04;6.60;99.90
3360;DHT22;1693;49.602;11.046;2023-02-04T13:38:33;6.80;99.90
3360;DHT22;1693;49.602;11.046;2023-02-04T13:41:01;6.60;99.90
3360;DHT22;1693;49.602;11.046;2023-02-04T13:43:38;6.40;99.90
3360;DHT22;1693;49.602;11.046;2023-02-04T13:46:07;6.50;99.90
3360;DHT22;1693;49.602;11.046;2023-02-04T13:48:35;6.60;99.90
3360;DHT22;1693;49.602;11.046;2023-02-04T13:51:04;6.70;99.90
3360;DHT22;1693;49.602;11.046;2023-02-04T13:53:34;6.70;99.90
3360;DHT22;1693;49.602;11.046;2023-02-04T13:56:10;6.70;99.90
3360;DHT22;1693;49.602;11.046;2023-02-04T13:58:39;6.50;99.90
3360;DHT22;1693;49.602;11.046;2023-02-04T14:01:11;6.40;99.90
3360;DHT22;1693;49.602;11.046;2023-02-04T14:03:39;6.20;99.90
3360;DHT22;1693;49.602;11.046;2023-02-04T14:06:08;6.20;99.90
3360;DHT22;1693;49.602;11.046;2023-02-04T14:08:37;6.40;99.90
3360;DHT22;1693;49.602;11.046;2023-02-04T14:11:05;6.10;99.90
3360;DHT22;1693;49.602;11.046;2023-02-04T14:13:35;6.10;99.90
3360;DHT22;1693;49.602;11.046;2023-02-04T14:16:06;6.20;99.90
3360;DHT22;1693;49.602;11.046;2023-02-04T14:18:41;6.30;99.90
3360;DHT22;1693;49.602;11.046;2023-02-04T14:21:09;6.40;99.90
3360;DHT22;1693;49.602;11.046;2023-02-04T14:23:38;6.50;99.90
3360;DHT22;1693;49.602;11.046;2023-02-04T14:26:08;6.70;99.90
3360;DHT22;1693;49.602;11.046;2023-02-04T14:28:38;6.70;99.90
3360;DHT22;1693;49.602;11.046;2023-02-04T14:31:07;6.60;99.90
3360;DHT22;1693;49.602;11.046;2023-02-04T14:33:38;6.60;99.90
3360;DHT22;1693;49.602;11.046;2023-02-04T14:36:09;6.60;99.90
3360;DHT22;1693;49.602;11.046;2023-02-04T14:38:36;6.50;99.90
3360;DHT22;1693;49.602;11.046;2023-02-04T14:41:10;6.40;99.90
3360;DHT22;1693;49.602;11.046;2023-02-04T14:43:49;6.40;99.90
3360;DHT22;1693;49.602;11.046;2023-02-04T14:46:22;6.30;99.90
3360;DHT22;1693;49.602;11.046;2023-02-04T14:48:53;6.10;99.90
3360;DHT22;1693;49.602;11.046;2023-02-04T14:51:24;5.90;99.90
3360;DHT22;1693;49.602;11.046;2023-02-04T14:53:51;5.90;99.90
3360;DHT22;1693;49.602;11.046;2023-02-04T14:56:20;6.00;99.90
3360;DHT22;1693;49.602;11.046;2023-02-04T14:58:48;6.00;99.90
3360;DHT22;1693;49.602;11.046;2023-02-04T15:01:15;5.80;99.90
3360;DHT22;1693;49.602;11.046;2023-02-04T15:03:44;6.00;99.90
3360;DHT22;1693;49.602;11.046;2023-02-04T15:06:13;6.10;99.90
3360;DHT22;1693;49.602;11.046;2023-02-04T15:08:40;6.30;99.90
3360;DHT22;1693;49.602;11.046;2023-02-04T15:11:09;6.40;99.90
3360;DHT22;1693;49.602;11.046;2023-02-04T15:13:36;6.30;99.90
3360;DHT22;1693;49.602;11.046;2023-02-04T15:16:04;6.40;99.90
3360;DHT22;1693;49.602;11.046;2023-02-04T15:18:37;6.30;99.90
3360;DHT22;1693;49.602;11.046;2023-02-04T15:21:07;6.50;99.90
3360;DHT22;1693;49.602;11.046;2023-02-04T15:23:43;6.40;99.90
3360;DHT22;1693;49.602;11.046;2023-02-04T15:26:13;6.30;99.90
3360;DHT22;1693;49.602;11.046;2023-02-04T15:28:41;5.90;99.90
3360;DHT22;1693;49.602;11.046;2023-02-04T15:31:09;5.90;99.90
3360;DHT22;1693;49.602;11.046;2023-02-04T15:33:39;5.90;99.90
3360;DHT22;1693;49.602;11.046;2023-02-04T15:36:06;5.80;99.90
3360;DHT22;1693;49.602;11.046;2023-02-04T15:38:47;5.70;99.90
3360;DHT22;1693;49.602;11.046;2023-02-04T15:41:16;5.60;99.90
3360;DHT22;1693;49.602;11.046;2023-02-04T15:43:43;5.60;99.90
3360;DHT22;1693;49.602;11.046;2023-02-04T15:46:11;5.40;99.90
3360;DHT22;1693;49.602;11.046;2023-02-04T15:48:40;5.20;99.90
3360;DHT22;1693;49.602;11.046;2023-02-04T15:51:07;5.30;99.90
3360;DHT22;1693;49.602;11.046;2023-02-04T15:53:39;5.10;99.90
3360;DHT22;1693;49.602;11.046;2023-02-04T15:56:10;5.00;99.90
3360;DHT22;1693;49.602;11.046;2023-02-04T15:58:37;4.90;99.90
3360;DHT22;1693;49.602;11.046;2023-02-04T16:01:05;4.90;99.90
3360;DHT22;1693;49.602;11.046;2023-02-04T16:03:35;4.80;99.90
3360;DHT22;1693;49.602;11.046;2023-02-04T16:06:03;4.70;99.90
3360;DHT22;1693;49.602;11.046;2023-02-04T16:08:30;4.60;99.90
3360;DHT22;1693;49.602;11.046;2023-02-04T16:10:58;4.40;99.90
3360;DHT22;1693;49.602;11.046;2023-02-04T16:13:27;4.30;99.90
3360;DHT22;1693;49.602;11.046;2023-02-04T16:15:54;4.20;99.90
3360;DHT22;1693;49.602;11.046;2023-02-04T16:18:22;4.00;99.90
3360;DHT22;1693;49.602;11.046;2023-02-04T16:20:55;3.80;99.90
3360;DHT22;1693;49.602;11.046;2023-02-04T16:23:24;3.60;99.90
3360;DHT22;1693;49.602;11.046;2023-02-04T16:25:54;3.50;99.90
3360;DHT22;1693;49.602;11.046;2023-02-04T16:28:21;3.50;99.90
3360;DHT22;1693;49.602;11.046;2023-02-04T16:30:55;3.40;99.90
3360;DHT22;1693;49.602;11.046;2023-02-04T16:33:25;3.30;99.90
3360;DHT22;1693;49.602;11.046;2023-02-04T16:35:58;3.10;99.90
3360;DHT22;1693;49.602;11.046;2023-02-04T16:38:26;3.00;99.90
3360;DHT22;1693;49.602;11.046;2023-02-04T16:40:56;3.00;99.90
3360;DHT22;1693;49.602;11.046;2023-02-04T16:43:36;2.90;99.90
3360;DHT22;1693;49.602;11.046;2023-02-04T16:46:06;2.70;99.90
3360;DHT22;1693;49.602;11.046;2023-02-04T16:48:38;2.60;99.90
3360;DHT22;1693;49.602;11.046;2023-02-04T16:51:05;2.60;99.90